createdAt,value
2022-12-18T00:00:15.484Z,43.93
2022-12-18T00:03:03.634Z,43.94
2022-12-18T00:05:32.760Z,43.90
2022-12-18T00:08:00.937Z,43.88
2022-12-18T00:10:30.347Z,43.84
2022-12-18T00:12:58.455Z,43.84
2022-12-18T00:15:26.667Z,43.85
2022-12-18T00:17:54.740Z,43.85
2022-12-18T00:20:26.699Z,43.75
2022-12-18T00:22:55.239Z,43.67
2022-12-18T00:25:24.000Z,43.57
2022-12-18T00:27:52.395Z,43.52
2022-12-18T00:30:20.713Z,43.41
2022-12-18T00:32:48.770Z,43.50
2022-12-18T00:35:16.972Z,43.49
2022-12-18T00:37:45.067Z,43.42
2022-12-18T00:40:13.679Z,43.42
2022-12-18T00:42:57.017Z,43.41
2022-12-18T00:45:31.371Z,43.22
2022-12-18T00:47:59.542Z,43.17
2022-12-18T00:50:28.175Z,43.05
2022-12-18T00:52:56.331Z,43.09
2022-12-18T00:55:24.442Z,43.19
2022-12-18T00:57:53.661Z,43.20
2022-12-18T01:00:22.217Z,43.33
2022-12-18T01:02:50.549Z,43.37
2022-12-18T01:05:19.572Z,43.43
2022-12-18T01:07:47.749Z,43.36
2022-12-18T01:10:15.987Z,43.41
2022-12-18T01:12:44.314Z,43.39
2022-12-18T01:15:15.519Z,43.44
2022-12-18T01:17:44.124Z,43.46
2022-12-18T01:20:14.359Z,43.48
2022-12-18T01:22:42.536Z,43.59
2022-12-18T01:25:10.883Z,43.61
2022-12-18T01:27:38.990Z,43.73
2022-12-18T01:30:08.349Z,43.76
2022-12-18T01:32:36.737Z,43.78
2022-12-18T01:35:06.486Z,43.76
2022-12-18T01:37:34.756Z,43.74
2022-12-18T01:40:03.017Z,43.75
2022-12-18T01:42:31.163Z,43.80
2022-12-18T01:45:12.384Z,43.80
2022-12-18T01:47:56.040Z,43.82
2022-12-18T01:50:31.074Z,43.81
2022-12-18T01:53:01.330Z,43.72
2022-12-18T01:55:33.657Z,43.75
2022-12-18T01:58:02.537Z,43.79
2022-12-18T02:00:31.091Z,43.73
2022-12-18T02:02:59.329Z,43.66
2022-12-18T02:06:01.981Z,43.69
2022-12-18T02:08:41.630Z,43.60
2022-12-18T02:11:37.990Z,43.49
2022-12-18T02:14:22.264Z,43.49
2022-12-18T02:17:13.517Z,43.38
2022-12-18T02:19:53.467Z,43.28
2022-12-18T02:22:59.830Z,43.13
2022-12-18T02:26:02.831Z,43.07
2022-12-18T02:28:41.154Z,43.06
2022-12-18T02:31:16.143Z,43.08
2022-12-18T02:33:46.874Z,43.03
2022-12-18T02:36:17.665Z,43.03
2022-12-18T02:38:47.809Z,42.98
2022-12-18T02:41:19.071Z,42.98
2022-12-18T02:43:56.412Z,42.92
2022-12-18T02:46:34.025Z,42.91
2022-12-18T02:49:22.551Z,42.89
2022-12-18T02:52:26.592Z,42.82
2022-12-18T02:55:18.039Z,42.70
2022-12-18T02:57:54.805Z,42.73
2022-12-18T03:00:39.217Z,42.72
2022-12-18T03:03:24.486Z,42.69
2022-12-18T03:06:05.498Z,42.66
2022-12-18T03:08:40.643Z,42.63
2022-12-18T03:11:14.928Z,42.61
2022-12-18T03:13:57.217Z,42.63
2022-12-18T03:16:31.264Z,42.59
2022-12-18T03:19:05.400Z,42.62
2022-12-18T03:21:51.034Z,42.60
2022-12-18T03:24:21.378Z,42.65
2022-12-18T03:26:55.420Z,42.63
2022-12-18T03:29:31.026Z,42.71
2022-12-18T03:32:13.045Z,42.68
2022-12-18T03:34:44.991Z,42.68
2022-12-18T03:37:14.142Z,42.67
2022-12-18T03:39:42.710Z,42.48
2022-12-18T03:42:28.794Z,42.43
2022-12-18T03:45:23.290Z,42.38
2022-12-18T03:48:01.570Z,42.39
2022-12-18T03:51:15.635Z,42.28
2022-12-18T03:54:05.020Z,42.20
2022-12-18T03:56:43.142Z,42.12
2022-12-18T03:59:13.881Z,42.08
2022-12-18T04:01:48.600Z,42.09
2022-12-18T04:04:19.961Z,42.03
2022-12-18T04:06:50.658Z,42.03
2022-12-18T04:09:21.695Z,41.68
2022-12-18T04:11:50.145Z,41.59
2022-12-18T04:14:18.686Z,41.46
2022-12-18T04:16:49.986Z,40.89
2022-12-18T04:19:19.463Z,40.70
2022-12-18T04:21:49.030Z,40.57
2022-12-18T04:24:17.152Z,40.50
2022-12-18T04:26:52.913Z,40.33
2022-12-18T04:29:27.194Z,39.97
2022-12-18T04:31:55.523Z,39.84
2022-12-18T04:34:25.327Z,39.68
2022-12-18T04:36:54.412Z,39.84
2022-12-18T04:39:23.292Z,40.24
2022-12-18T04:41:52.637Z,40.52
2022-12-18T04:44:20.896Z,40.79
2022-12-18T04:46:49.054Z,40.91
2022-12-18T04:49:17.317Z,40.82
2022-12-18T04:51:45.523Z,40.85
2022-12-18T04:54:13.561Z,41.08
2022-12-18T04:56:41.736Z,41.30
2022-12-18T04:59:09.840Z,41.21
2022-12-18T05:01:38.182Z,41.35
2022-12-18T05:04:07.086Z,41.43
2022-12-18T05:06:35.240Z,41.04
2022-12-18T05:09:05.468Z,42.06
2022-12-18T05:11:34.910Z,42.47
2022-12-18T05:14:03.273Z,42.01
2022-12-18T05:16:31.481Z,42.06
2022-12-18T05:18:59.716Z,42.29
2022-12-18T05:21:27.816Z,42.17
2022-12-18T05:23:55.977Z,42.42
2022-12-18T05:26:24.281Z,42.17
2022-12-18T05:28:52.396Z,42.37
2022-12-18T05:31:20.619Z,42.45
2022-12-18T05:33:49.996Z,42.73
2022-12-18T05:36:18.198Z,42.42
2022-12-18T05:38:46.470Z,41.96
2022-12-18T05:41:14.633Z,42.11
2022-12-18T05:43:44.048Z,42.36
2022-12-18T05:46:18.950Z,42.18
2022-12-18T05:48:47.587Z,42.49
2022-12-18T05:51:19.327Z,42.97
2022-12-18T05:53:48.439Z,43.41
2022-12-18T05:56:21.106Z,42.87
2022-12-18T05:58:53.852Z,41.46
2022-12-18T06:01:27.505Z,40.85
2022-12-18T06:03:56.623Z,39.88
2022-12-18T06:06:28.007Z,39.53
2022-12-18T06:08:57.692Z,38.93
2022-12-18T06:11:27.732Z,39.16
2022-12-18T06:13:58.915Z,39.09
2022-12-18T06:16:29.414Z,38.18
2022-12-18T06:19:02.626Z,37.67
2022-12-18T06:21:31.970Z,36.94
2022-12-18T06:24:01.167Z,36.19
2022-12-18T06:26:29.325Z,36.53
2022-12-18T06:28:57.951Z,36.52
2022-12-18T06:31:26.954Z,36.40
2022-12-18T06:33:55.105Z,36.20
2022-12-18T06:36:23.312Z,36.11
2022-12-18T06:38:51.385Z,36.03
2022-12-18T06:41:22.270Z,35.87
2022-12-18T06:43:52.195Z,35.80
2022-12-18T06:46:22.766Z,35.34
2022-12-18T06:48:51.624Z,35.39
2022-12-18T06:51:24.714Z,35.28
2022-12-18T06:53:52.947Z,35.32
2022-12-18T06:56:21.289Z,35.85
2022-12-18T06:58:52.547Z,36.56
2022-12-18T07:01:20.926Z,36.61
2022-12-18T07:03:55.486Z,36.91
2022-12-18T07:06:26.591Z,37.59
2022-12-18T07:08:56.193Z,38.28
2022-12-18T07:11:25.364Z,39.06
2022-12-18T07:13:54.316Z,40.21
2022-12-18T07:16:25.652Z,40.52
2022-12-18T07:18:56.360Z,40.93
2022-12-18T07:21:25.819Z,41.58
2022-12-18T07:23:53.959Z,41.13
2022-12-18T07:26:23.646Z,41.02
2022-12-18T07:28:55.715Z,41.36
2022-12-18T07:31:25.532Z,41.72
2022-12-18T07:33:53.879Z,39.99
2022-12-18T07:36:25.572Z,38.60
2022-12-18T07:38:54.059Z,38.59
2022-12-18T07:41:22.187Z,40.49
2022-12-18T07:43:50.667Z,41.80
2022-12-18T07:46:19.181Z,42.08
2022-12-18T07:48:49.733Z,42.28
2022-12-18T07:51:20.811Z,42.42
2022-12-18T07:53:52.571Z,42.34
2022-12-18T07:56:27.668Z,40.40
2022-12-18T07:58:58.753Z,39.64
2022-12-18T08:01:28.172Z,39.96
2022-12-18T08:03:56.634Z,40.22
2022-12-18T08:06:25.158Z,40.75
2022-12-18T08:08:55.587Z,41.51
2022-12-18T08:11:27.689Z,41.95
2022-12-18T08:13:56.815Z,42.38
2022-12-18T08:16:25.336Z,42.93
2022-12-18T08:18:54.848Z,43.41
2022-12-18T08:21:32.677Z,43.67
2022-12-18T08:24:02.793Z,44.08
2022-12-18T08:26:32.646Z,45.02
2022-12-18T08:29:01.793Z,45.26
2022-12-18T08:31:32.057Z,44.93
2022-12-18T08:34:00.290Z,44.98
2022-12-18T08:36:28.740Z,44.89
2022-12-18T08:38:58.349Z,44.69
2022-12-18T08:41:27.502Z,44.80
2022-12-18T08:44:15.260Z,44.77
2022-12-18T08:46:45.030Z,44.86
2022-12-18T08:49:15.706Z,45.16
2022-12-18T08:51:43.776Z,45.39
2022-12-18T08:54:14.642Z,37.20
2022-12-18T08:56:43.135Z,36.10
2022-12-18T08:59:17.292Z,39.47
2022-12-18T09:01:47.977Z,41.19
2022-12-18T09:04:16.743Z,42.54
2022-12-18T09:06:45.029Z,44.20
2022-12-18T09:09:13.671Z,44.41
2022-12-18T09:11:41.998Z,44.69
2022-12-18T09:14:10.997Z,45.05
2022-12-18T09:16:39.416Z,45.20
2022-12-18T09:19:08.148Z,44.95
2022-12-18T09:21:43.383Z,44.86
2022-12-18T09:24:15.796Z,44.72
2022-12-18T09:26:47.225Z,44.65
2022-12-18T09:29:19.014Z,44.39
2022-12-18T09:31:47.685Z,44.44
2022-12-18T09:34:17.749Z,44.86
2022-12-18T09:36:45.953Z,45.19
2022-12-18T09:39:17.344Z,45.54
2022-12-18T09:41:59.023Z,45.81
2022-12-18T09:44:32.663Z,45.85
2022-12-18T09:47:05.067Z,45.79
2022-12-18T09:49:40.481Z,45.80
2022-12-18T09:52:35.520Z,45.72
2022-12-18T09:55:19.532Z,46.00
2022-12-18T09:57:54.458Z,45.80
2022-12-18T10:00:26.155Z,45.53
2022-12-18T10:03:10.450Z,45.44
2022-12-18T10:05:45.637Z,44.73
2022-12-18T10:08:35.236Z,44.83
2022-12-18T10:11:41.048Z,45.14
2022-12-18T10:14:34.246Z,45.28
2022-12-18T10:17:26.696Z,45.50
2022-12-18T10:20:36.234Z,45.51
2022-12-18T10:23:16.747Z,45.51
2022-12-18T10:26:06.064Z,45.57
2022-12-18T10:28:42.778Z,45.53
2022-12-18T10:31:24.561Z,45.56
2022-12-18T10:33:57.100Z,45.54
2022-12-18T10:36:26.497Z,45.37
2022-12-18T10:38:54.673Z,45.10
2022-12-18T10:41:27.422Z,45.09
2022-12-18T10:44:19.211Z,45.16
2022-12-18T10:46:51.414Z,44.93
2022-12-18T10:49:39.219Z,45.00
2022-12-18T10:52:21.535Z,45.10
2022-12-18T10:55:03.804Z,45.07
2022-12-18T10:57:42.728Z,44.86
2022-12-18T11:00:34.019Z,45.00
2022-12-18T11:03:40.131Z,44.90
2022-12-18T11:06:23.207Z,44.92
2022-12-18T11:09:19.971Z,44.69
2022-12-18T11:11:54.571Z,44.47
2022-12-18T11:14:47.326Z,44.55
2022-12-18T11:17:37.007Z,44.56
2022-12-18T11:20:33.085Z,44.55
2022-12-18T11:23:15.152Z,44.41
2022-12-18T11:26:05.740Z,44.39
2022-12-18T11:29:11.305Z,44.32
2022-12-18T11:31:41.156Z,44.48
2022-12-18T11:34:34.307Z,44.68
2022-12-18T11:37:04.697Z,44.72
2022-12-18T11:39:46.395Z,45.15
2022-12-18T11:42:36.886Z,45.28
2022-12-18T11:45:14.500Z,45.36
2022-12-18T11:48:02.630Z,45.54
2022-12-18T11:50:58.113Z,45.59
2022-12-18T11:53:54.175Z,45.59
2022-12-18T11:56:50.512Z,45.50
2022-12-18T11:59:44.688Z,45.35
2022-12-18T12:02:51.033Z,45.47
2022-12-18T12:06:10.228Z,45.08
2022-12-18T12:09:06.366Z,44.94
2022-12-18T12:11:58.744Z,44.93
2022-12-18T12:15:09.047Z,44.85
2022-12-18T12:18:28.200Z,44.69
2022-12-18T12:21:41.730Z,44.64
2022-12-18T12:24:53.057Z,44.55
2022-12-18T12:27:38.025Z,44.33
2022-12-18T12:30:36.507Z,43.94
2022-12-18T12:33:32.637Z,43.94
2022-12-18T12:36:27.647Z,44.10
2022-12-18T12:39:02.269Z,44.11
2022-12-18T12:41:53.750Z,44.10
2022-12-18T12:44:29.433Z,44.19
2022-12-18T12:47:12.250Z,44.15
2022-12-18T12:49:41.671Z,44.23
2022-12-18T12:52:38.304Z,44.24
2022-12-18T12:55:26.762Z,44.15
2022-12-18T12:58:10.082Z,44.18
2022-12-18T13:00:55.181Z,44.15
2022-12-18T13:03:41.449Z,44.17
2022-12-18T13:06:49.254Z,44.21
2022-12-18T13:09:18.160Z,44.09
2022-12-18T13:12:06.775Z,43.99
2022-12-18T13:14:41.727Z,43.99
2022-12-18T13:17:22.157Z,43.98
2022-12-18T13:20:09.910Z,43.91
2022-12-18T13:22:51.233Z,43.93
2022-12-18T13:25:39.076Z,43.85
2022-12-18T13:28:17.386Z,43.81
2022-12-18T13:30:50.865Z,43.74
2022-12-18T13:33:28.736Z,43.61
2022-12-18T13:36:09.900Z,43.59
2022-12-18T13:38:39.782Z,43.59
2022-12-18T13:41:29.524Z,43.41
2022-12-18T13:44:13.638Z,43.47
2022-12-18T13:46:47.689Z,43.46
2022-12-18T13:49:15.757Z,43.43
2022-12-18T13:51:54.621Z,43.28
2022-12-18T13:54:42.621Z,43.30
2022-12-18T13:57:34.153Z,43.17
2022-12-18T14:00:32.523Z,43.06
2022-12-18T14:03:02.168Z,42.99
2022-12-18T14:05:36.176Z,43.39
2022-12-18T14:08:14.009Z,43.60
2022-12-18T14:10:49.330Z,43.79
2022-12-18T14:13:43.283Z,43.95
2022-12-18T14:16:16.264Z,44.08
2022-12-18T14:18:47.349Z,44.20
2022-12-18T14:21:39.527Z,44.38
2022-12-18T14:24:22.754Z,44.39
2022-12-18T14:26:52.309Z,44.41
2022-12-18T14:29:25.577Z,44.53
2022-12-18T14:32:20.184Z,44.59
2022-12-18T14:34:55.093Z,44.55
2022-12-18T14:37:26.633Z,44.65
2022-12-18T14:40:00.588Z,44.51
2022-12-18T14:42:30.159Z,44.37
2022-12-18T14:45:41.823Z,44.42
2022-12-18T14:48:25.214Z,44.21
2022-12-18T14:51:15.581Z,43.78
2022-12-18T14:53:54.077Z,43.05
2022-12-18T14:56:32.613Z,42.92
2022-12-18T14:59:07.742Z,43.09
2022-12-18T15:01:49.032Z,42.94
2022-12-18T15:04:43.014Z,42.91
2022-12-18T15:07:14.998Z,42.93
2022-12-18T15:10:16.217Z,42.87
2022-12-18T15:12:48.077Z,42.80
2022-12-18T15:15:34.746Z,42.89
2022-12-18T15:18:13.180Z,42.89
2022-12-18T15:20:50.898Z,41.71
2022-12-18T15:23:53.786Z,38.62
2022-12-18T15:26:23.585Z,36.42
2022-12-18T15:28:56.974Z,35.45
2022-12-18T15:31:31.758Z,35.55
2022-12-18T15:34:09.082Z,35.54
2022-12-18T15:36:37.613Z,35.37
2022-12-18T15:39:06.677Z,35.13
2022-12-18T15:41:37.521Z,34.60
2022-12-18T15:44:26.572Z,34.17
2022-12-18T15:46:58.082Z,34.18
2022-12-18T15:49:26.421Z,32.39
2022-12-18T15:52:00.944Z,30.90
2022-12-18T15:54:47.711Z,32.17
2022-12-18T15:57:24.921Z,32.87
2022-12-18T15:59:57.550Z,33.64
2022-12-18T16:02:26.848Z,34.27
2022-12-18T16:04:55.304Z,34.74
2022-12-18T16:07:25.522Z,35.16
2022-12-18T16:09:55.833Z,35.30
2022-12-18T16:12:26.782Z,35.33
2022-12-18T16:14:55.164Z,36.10
2022-12-18T16:17:23.205Z,36.52
2022-12-18T16:19:51.476Z,36.79
2022-12-18T16:22:26.133Z,36.90
2022-12-18T16:24:56.773Z,36.98
2022-12-18T16:27:26.172Z,37.44
2022-12-18T16:29:54.345Z,37.95
2022-12-18T16:32:23.720Z,36.69
2022-12-18T16:34:53.153Z,35.80
2022-12-18T16:37:21.295Z,35.78
2022-12-18T16:39:49.380Z,35.99
2022-12-18T16:42:21.244Z,36.41
2022-12-18T16:44:50.516Z,36.37
2022-12-18T16:47:20.267Z,36.36
2022-12-18T16:49:51.766Z,36.47
2022-12-18T16:52:20.710Z,36.68
2022-12-18T16:54:49.192Z,37.04
2022-12-18T16:57:21.153Z,37.14
2022-12-18T16:59:53.328Z,37.33
2022-12-18T17:02:25.111Z,37.47
2022-12-18T17:04:56.899Z,37.44
2022-12-18T17:07:26.995Z,37.52
2022-12-18T17:09:55.764Z,37.72
2022-12-18T17:12:24.963Z,37.77
2022-12-18T17:14:53.060Z,37.59
2022-12-18T17:17:22.557Z,37.71
2022-12-18T17:19:52.511Z,37.76
2022-12-18T17:22:23.605Z,37.74
2022-12-18T17:24:52.165Z,37.90
2022-12-18T17:27:20.442Z,38.06
2022-12-18T17:29:49.163Z,38.15
2022-12-18T17:32:18.352Z,38.35
2022-12-18T17:34:46.766Z,38.51
2022-12-18T17:37:15.554Z,38.39
2022-12-18T17:39:43.780Z,38.28
2022-12-18T17:42:15.569Z,38.22
2022-12-18T17:44:44.929Z,38.08
2022-12-18T17:47:14.677Z,37.84
2022-12-18T17:49:42.756Z,37.37
2022-12-18T17:52:11.195Z,36.92
2022-12-18T17:54:42.297Z,36.91
2022-12-18T17:57:10.728Z,37.07
2022-12-18T17:59:39.022Z,37.12
2022-12-18T18:02:10.022Z,37.39
2022-12-18T18:04:38.520Z,37.54
2022-12-18T18:07:06.796Z,37.76
2022-12-18T18:09:35.068Z,37.90
2022-12-18T18:12:21.982Z,37.76
2022-12-18T18:14:50.982Z,37.82
2022-12-18T18:17:19.865Z,37.70
2022-12-18T18:19:48.030Z,37.73
2022-12-18T18:22:19.287Z,37.51
2022-12-18T18:24:48.547Z,37.62
2022-12-18T18:27:17.258Z,37.64
2022-12-18T18:29:45.651Z,37.54
2022-12-18T18:32:13.787Z,37.63
2022-12-18T18:34:42.204Z,37.40
2022-12-18T18:37:12.120Z,36.77
2022-12-18T18:39:40.401Z,36.55
2022-12-18T18:42:09.184Z,36.58
2022-12-18T18:44:37.269Z,36.68
2022-12-18T18:47:08.598Z,36.63
2022-12-18T18:49:38.007Z,36.78
2022-12-18T18:52:07.412Z,36.67
2022-12-18T18:54:35.706Z,36.78
2022-12-18T18:57:20.291Z,37.05
2022-12-18T18:59:49.170Z,37.10
2022-12-18T19:02:18.132Z,37.07
2022-12-18T19:04:47.151Z,37.31
2022-12-18T19:07:26.165Z,37.84
2022-12-18T19:10:03.508Z,38.08
2022-12-18T19:12:53.433Z,38.13
2022-12-18T19:15:23.451Z,38.08
2022-12-18T19:17:51.820Z,38.15
2022-12-18T19:20:20.233Z,38.22
2022-12-18T19:22:55.464Z,38.14
2022-12-18T19:25:33.860Z,37.59
2022-12-18T19:28:15.801Z,37.00
2022-12-18T19:31:01.771Z,36.90
2022-12-18T19:33:42.736Z,36.35
2022-12-18T19:36:20.825Z,36.83
2022-12-18T19:38:51.298Z,37.13
2022-12-18T19:41:21.210Z,37.28
2022-12-18T19:43:51.190Z,37.30
2022-12-18T19:46:22.989Z,37.32
2022-12-18T19:48:51.828Z,37.05
2022-12-18T19:51:26.483Z,36.98
2022-12-18T19:53:58.820Z,37.26
2022-12-18T19:56:34.787Z,37.30
2022-12-18T19:59:05.242Z,37.36
2022-12-18T20:01:33.902Z,37.72
2022-12-18T20:04:02.668Z,37.89
2022-12-18T20:06:53.496Z,38.03
2022-12-18T20:09:22.040Z,38.24
2022-12-18T20:11:50.894Z,38.21
2022-12-18T20:14:23.224Z,38.32
2022-12-18T20:16:53.027Z,38.21
2022-12-18T20:19:22.551Z,38.26
2022-12-18T20:21:51.139Z,38.28
2022-12-18T20:24:19.314Z,38.28
2022-12-18T20:26:47.589Z,38.30
2022-12-18T20:29:15.970Z,38.15
2022-12-18T20:31:44.269Z,38.15
2022-12-18T20:34:12.623Z,38.11
2022-12-18T20:36:41.187Z,38.21
2022-12-18T20:39:13.310Z,38.38
2022-12-18T20:41:41.959Z,38.31
2022-12-18T20:44:23.112Z,38.30
2022-12-18T20:47:00.340Z,38.27
2022-12-18T20:49:35.361Z,38.46
2022-12-18T20:52:04.011Z,38.44
2022-12-18T20:54:32.219Z,38.38
2022-12-18T20:57:00.496Z,38.47
2022-12-18T20:59:28.775Z,38.69
2022-12-18T21:01:57.097Z,38.88
2022-12-18T21:04:26.250Z,38.91
2022-12-18T21:06:58.027Z,38.96
2022-12-18T21:09:36.945Z,38.87
2022-12-18T21:12:33.468Z,38.93
2022-12-18T21:15:10.060Z,39.02
2022-12-18T21:17:44.139Z,39.07
2022-12-18T21:20:17.299Z,39.19
2022-12-18T21:22:47.233Z,39.03
2022-12-18T21:25:15.637Z,38.87
2022-12-18T21:27:43.813Z,38.90
2022-12-18T21:30:14.515Z,38.82
2022-12-18T21:32:42.621Z,38.73
2022-12-18T21:35:10.794Z,38.75
2022-12-18T21:37:38.907Z,38.77
2022-12-18T21:40:08.545Z,38.80
2022-12-18T21:42:55.477Z,38.78
2022-12-18T21:45:23.663Z,38.69
2022-12-18T21:47:51.838Z,38.71
2022-12-18T21:50:19.975Z,38.63
2022-12-18T21:52:47.994Z,38.60
2022-12-18T21:55:16.154Z,38.55
2022-12-18T21:57:44.212Z,38.42
2022-12-18T22:00:19.199Z,38.61
2022-12-18T22:03:16.937Z,38.53
2022-12-18T22:05:38.449Z,38.46
2022-12-18T22:08:07.645Z,38.45
2022-12-18T22:10:37.390Z,38.47
2022-12-18T22:13:07.469Z,38.53
2022-12-18T22:15:35.704Z,38.57
2022-12-18T22:18:04.129Z,38.47
2022-12-18T22:20:32.518Z,38.34
2022-12-18T22:23:02.884Z,38.25
2022-12-18T22:25:36.010Z,38.24
2022-12-18T22:28:26.931Z,38.19
2022-12-18T22:30:59.584Z,38.23
2022-12-18T22:33:28.670Z,38.10
2022-12-18T22:35:57.092Z,38.13
2022-12-18T22:38:26.384Z,38.19
2022-12-18T22:40:55.173Z,38.09
2022-12-18T22:43:23.600Z,38.02
2022-12-18T22:45:51.735Z,38.02
2022-12-18T22:48:20.105Z,38.01
2022-12-18T22:50:48.279Z,37.86
2022-12-18T22:53:18.099Z,37.87
2022-12-18T22:55:46.368Z,37.73
2022-12-18T22:58:14.545Z,37.67
2022-12-18T23:00:42.717Z,37.68
2022-12-18T23:03:11.097Z,37.54
2022-12-18T23:05:39.789Z,37.53
2022-12-18T23:08:07.962Z,37.71
2022-12-18T23:10:39.643Z,37.78
2022-12-18T23:13:08.525Z,37.86
2022-12-18T23:15:42.880Z,37.86
2022-12-18T23:18:11.815Z,37.96
2022-12-18T23:20:40.061Z,38.02
2022-12-18T23:23:08.406Z,37.86
2022-12-18T23:25:36.874Z,37.89
2022-12-18T23:28:06.077Z,38.07
2022-12-18T23:30:34.351Z,38.07
2022-12-18T23:33:02.702Z,37.97
2022-12-18T23:35:31.286Z,37.91
2022-12-18T23:38:00.160Z,37.90
2022-12-18T23:40:30.088Z,37.84
2022-12-18T23:43:00.209Z,37.73
2022-12-18T23:45:28.404Z,37.72
2022-12-18T23:47:56.762Z,37.78
2022-12-18T23:50:29.392Z,37.79
2022-12-18T23:53:00.812Z,37.82
2022-12-18T23:55:40.472Z,37.57
2022-12-18T23:58:18.234Z,37.53
